sensor_id;sensor_type;location;lat;lon;timestamp;P1;durP1;ratioP1;P2;durP2;ratioP2
15876;SDS011;8037;51.666;7.834;2023-10-09T00:01:17;6.23;;;3.10;;
15876;SDS011;8037;51.666;7.834;2023-10-09T00:03:43;6.20;;;3.33;;
15876;SDS011;8037;51.666;7.834;2023-10-09T00:06:10;4.87;;;3.27;;
15876;SDS011;8037;51.666;7.834;2023-10-09T00:08:38;7.20;;;2.80;;
15876;SDS011;8037;51.666;7.834;2023-10-09T00:11:09;3.97;;;3.30;;
15876;SDS011;8037;51.666;7.834;2023-10-09T00:13:41;5.97;;;3.87;;
15876;SDS011;8037;51.666;7.834;2023-10-09T00:16:22;7.10;;;3.40;;
15876;SDS011;8037;51.666;7.834;2023-10-09T00:19:02;4.83;;;2.50;;
15876;SDS011;8037;51.666;7.834;2023-10-09T00:21:48;3.90;;;3.10;;
15876;SDS011;8037;51.666;7.834;2023-10-09T00:24:15;3.70;;;3.07;;
15876;SDS011;8037;51.666;7.834;2023-10-09T00:26:48;7.60;;;3.63;;
15876;SDS011;8037;51.666;7.834;2023-10-09T00:29:14;7.00;;;3.40;;
15876;SDS011;8037;51.666;7.834;2023-10-09T00:31:53;8.33;;;3.60;;
15876;SDS011;8037;51.666;7.834;2023-10-09T00:34:30;3.67;;;3.10;;
15876;SDS011;8037;51.666;7.834;2023-10-09T00:37:04;6.63;;;2.93;;
15876;SDS011;8037;51.666;7.834;2023-10-09T00:39:35;9.90;;;3.63;;
15876;SDS011;8037;51.666;7.834;2023-10-09T00:42:02;5.53;;;3.33;;
15876;SDS011;8037;51.666;7.834;2023-10-09T00:44:31;8.83;;;3.40;;
15876;SDS011;8037;51.666;7.834;2023-10-09T00:47:04;5.83;;;3.20;;
15876;SDS011;8037;51.666;7.834;2023-10-09T00:49:36;6.20;;;3.00;;
15876;SDS011;8037;51.666;7.834;2023-10-09T00:52:06;5.17;;;3.70;;
15876;SDS011;8037;51.666;7.834;2023-10-09T00:54:42;3.30;;;2.80;;
15876;SDS011;8037;51.666;7.834;2023-10-09T00:57:09;11.33;;;4.73;;
15876;SDS011;8037;51.666;7.834;2023-10-09T00:59:38;8.70;;;4.93;;
15876;SDS011;8037;51.666;7.834;2023-10-09T01:02:07;10.00;;;6.37;;
15876;SDS011;8037;51.666;7.834;2023-10-09T01:04:34;10.10;;;5.27;;
15876;SDS011;8037;51.666;7.834;2023-10-09T01:07:08;11.77;;;5.97;;
15876;SDS011;8037;51.666;7.834;2023-10-09T01:09:40;9.20;;;6.07;;
15876;SDS011;8037;51.666;7.834;2023-10-09T01:12:09;18.93;;;6.63;;
15876;SDS011;8037;51.666;7.834;2023-10-09T01:14:42;9.10;;;6.87;;
15876;SDS011;8037;51.666;7.834;2023-10-09T01:17:08;13.93;;;7.47;;
15876;SDS011;8037;51.666;7.834;2023-10-09T01:19:36;6.23;;;5.47;;
15876;SDS011;8037;51.666;7.834;2023-10-09T01:22:02;10.90;;;6.80;;
15876;SDS011;8037;51.666;7.834;2023-10-09T01:24:41;10.97;;;6.10;;
15876;SDS011;8037;51.666;7.834;2023-10-09T01:27:08;10.80;;;5.97;;
15876;SDS011;8037;51.666;7.834;2023-10-09T01:29:40;13.50;;;5.60;;
15876;SDS011;8037;51.666;7.834;2023-10-09T01:32:10;13.00;;;6.60;;
15876;SDS011;8037;51.666;7.834;2023-10-09T01:34:46;10.60;;;6.83;;
15876;SDS011;8037;51.666;7.834;2023-10-09T01:37:15;17.33;;;6.70;;
15876;SDS011;8037;51.666;7.834;2023-10-09T01:39:54;10.20;;;4.53;;
15876;SDS011;8037;51.666;7.834;2023-10-09T01:42:23;17.60;;;6.90;;
15876;SDS011;8037;51.666;7.834;2023-10-09T01:44:58;12.13;;;6.47;;
15876;SDS011;8037;51.666;7.834;2023-10-09T01:47:34;12.70;;;6.17;;
15876;SDS011;8037;51.666;7.834;2023-10-09T01:50:03;11.40;;;5.63;;
15876;SDS011;8037;51.666;7.834;2023-10-09T01:52:30;11.43;;;5.10;;
15876;SDS011;8037;51.666;7.834;2023-10-09T01:54:56;14.67;;;6.30;;
15876;SDS011;8037;51.666;7.834;2023-10-09T01:57:29;11.60;;;6.80;;
15876;SDS011;8037;51.666;7.834;2023-10-09T01:59:55;19.40;;;6.20;;
15876;SDS011;8037;51.666;7.834;2023-10-09T02:02:23;11.23;;;6.70;;
15876;SDS011;8037;51.666;7.834;2023-10-09T02:04:59;10.90;;;4.53;;
15876;SDS011;8037;51.666;7.834;2023-10-09T02:07:49;22.93;;;6.40;;
15876;SDS011;8037;51.666;7.834;2023-10-09T02:10:18;18.30;;;6.30;;
15876;SDS011;8037;51.666;7.834;2023-10-09T02:12:48;15.70;;;5.50;;
15876;SDS011;8037;51.666;7.834;2023-10-09T02:15:19;11.20;;;5.80;;
15876;SDS011;8037;51.666;7.834;2023-10-09T02:18:04;9.23;;;6.30;;
15876;SDS011;8037;51.666;7.834;2023-10-09T02:20:42;16.33;;;5.93;;
15876;SDS011;8037;51.666;7.834;2023-10-09T02:23:10;26.10;;;5.80;;
15876;SDS011;8037;51.666;7.834;2023-10-09T02:25:38;11.10;;;5.00;;
15876;SDS011;8037;51.666;7.834;2023-10-09T02:28:08;14.70;;;6.70;;
15876;SDS011;8037;51.666;7.834;2023-10-09T02:30:34;11.10;;;5.87;;
15876;SDS011;8037;51.666;7.834;2023-10-09T02:33:00;11.90;;;6.67;;
15876;SDS011;8037;51.666;7.834;2023-10-09T02:35:34;10.60;;;5.73;;
15876;SDS011;8037;51.666;7.834;2023-10-09T02:38:07;10.93;;;6.73;;
15876;SDS011;8037;51.666;7.834;2023-10-09T02:40:39;11.30;;;6.50;;
15876;SDS011;8037;51.666;7.834;2023-10-09T02:43:18;12.40;;;6.10;;
15876;SDS011;8037;51.666;7.834;2023-10-09T02:45:44;9.80;;;5.20;;
15876;SDS011;8037;51.666;7.834;2023-10-09T02:48:15;12.27;;;6.07;;
15876;SDS011;8037;51.666;7.834;2023-10-09T02:50:44;9.87;;;5.50;;
15876;SDS011;8037;51.666;7.834;2023-10-09T02:53:10;9.70;;;6.63;;
15876;SDS011;8037;51.666;7.834;2023-10-09T02:55:43;16.70;;;5.63;;
15876;SDS011;8037;51.666;7.834;2023-10-09T02:58:29;11.83;;;6.20;;
15876;SDS011;8037;51.666;7.834;2023-10-09T03:00:57;21.00;;;6.33;;
15876;SDS011;8037;51.666;7.834;2023-10-09T03:03:23;10.13;;;5.40;;
15876;SDS011;8037;51.666;7.834;2023-10-09T03:05:50;9.53;;;6.20;;
15876;SDS011;8037;51.666;7.834;2023-10-09T03:08:16;17.83;;;6.47;;
15876;SDS011;8037;51.666;7.834;2023-10-09T03:10:44;24.37;;;6.23;;
15876;SDS011;8037;51.666;7.834;2023-10-09T03:13:10;12.60;;;6.80;;
15876;SDS011;8037;51.666;7.834;2023-10-09T03:15:38;11.03;;;6.37;;
15876;SDS011;8037;51.666;7.834;2023-10-09T03:18:04;13.77;;;5.80;;
15876;SDS011;8037;51.666;7.834;2023-10-09T03:20:30;17.10;;;7.53;;
15876;SDS011;8037;51.666;7.834;2023-10-09T03:22:56;10.93;;;6.20;;
15876;SDS011;8037;51.666;7.834;2023-10-09T03:25:23;6.90;;;5.20;;
15876;SDS011;8037;51.666;7.834;2023-10-09T03:27:50;13.40;;;5.87;;
15876;SDS011;8037;51.666;7.834;2023-10-09T03:30:18;12.10;;;7.03;;
15876;SDS011;8037;51.666;7.834;2023-10-09T03:32:47;12.47;;;5.97;;
15876;SDS011;8037;51.666;7.834;2023-10-09T03:35:16;6.43;;;4.83;;
15876;SDS011;8037;51.666;7.834;2023-10-09T03:37:49;9.47;;;5.77;;
15876;SDS011;8037;51.666;7.834;2023-10-09T03:40:22;9.97;;;5.87;;
15876;SDS011;8037;51.666;7.834;2023-10-09T03:42:48;13.37;;;6.43;;
15876;SDS011;8037;51.666;7.834;2023-10-09T03:45:14;17.63;;;5.63;;
15876;SDS011;8037;51.666;7.834;2023-10-09T03:47:50;13.53;;;5.40;;
15876;SDS011;8037;51.666;7.834;2023-10-09T03:50:21;10.83;;;6.23;;
15876;SDS011;8037;51.666;7.834;2023-10-09T03:53:01;14.47;;;5.20;;
15876;SDS011;8037;51.666;7.834;2023-10-09T03:55:28;13.97;;;6.70;;
15876;SDS011;8037;51.666;7.834;2023-10-09T03:57:54;11.20;;;6.57;;
15876;SDS011;8037;51.666;7.834;2023-10-09T04:00:23;17.23;;;6.50;;
15876;SDS011;8037;51.666;7.834;2023-10-09T04:02:53;12.37;;;6.03;;
15876;SDS011;8037;51.666;7.834;2023-10-09T04:05:19;13.00;;;5.80;;
15876;SDS011;8037;51.666;7.834;2023-10-09T04:07:45;20.00;;;6.87;;
15876;SDS011;8037;51.666;7.834;2023-10-09T04:10:13;10.60;;;6.40;;
15876;SDS011;8037;51.666;7.834;2023-10-09T04:13:07;12.70;;;6.50;;
15876;SDS011;8037;51.666;7.834;2023-10-09T04:15:36;9.50;;;6.10;;
15876;SDS011;8037;51.666;7.834;2023-10-09T04:18:02;11.90;;;5.33;;
15876;SDS011;8037;51.666;7.834;2023-10-09T04:20:31;12.57;;;6.60;;
15876;SDS011;8037;51.666;7.834;2023-10-09T04:22:57;12.93;;;7.30;;
15876;SDS011;8037;51.666;7.834;2023-10-09T04:25:30;12.93;;;5.70;;
15876;SDS011;8037;51.666;7.834;2023-10-09T04:28:16;12.50;;;5.60;;
15876;SDS011;8037;51.666;7.834;2023-10-09T04:30:47;12.43;;;5.60;;
15876;SDS011;8037;51.666;7.834;2023-10-09T04:33:20;11.77;;;4.53;;
15876;SDS011;8037;51.666;7.834;2023-10-09T04:36:05;11.10;;;4.87;;
15876;SDS011;8037;51.666;7.834;2023-10-09T04:38:43;6.93;;;3.97;;
15876;SDS011;8037;51.666;7.834;2023-10-09T04:41:45;8.50;;;4.60;;
15876;SDS011;8037;51.666;7.834;2023-10-09T04:44:11;10.37;;;4.40;;
15876;SDS011;8037;51.666;7.834;2023-10-09T04:46:54;7.90;;;4.50;;
15876;SDS011;8037;51.666;7.834;2023-10-09T04:49:38;6.23;;;4.80;;
15876;SDS011;8037;51.666;7.834;2023-10-09T04:52:14;12.13;;;4.50;;
15876;SDS011;8037;51.666;7.834;2023-10-09T04:54:58;10.40;;;5.77;;
15876;SDS011;8037;51.666;7.834;2023-10-09T04:57:44;11.90;;;5.33;;
15876;SDS011;8037;51.666;7.834;2023-10-09T05:05:30;5.67;;;3.67;;
15876;SDS011;8037;51.666;7.834;2023-10-09T05:08:11;9.07;;;4.93;;
15876;SDS011;8037;51.666;7.834;2023-10-09T05:10:48;11.53;;;5.20;;
15876;SDS011;8037;51.666;7.834;2023-10-09T05:13:30;20.33;;;5.80;;
15876;SDS011;8037;51.666;7.834;2023-10-09T05:16:11;8.50;;;5.27;;
15876;SDS011;8037;51.666;7.834;2023-10-09T05:18:43;15.47;;;7.90;;
15876;SDS011;8037;51.666;7.834;2023-10-09T05:21:10;8.43;;;5.13;;
15876;SDS011;8037;51.666;7.834;2023-10-09T05:23:55;9.63;;;5.27;;
15876;SDS011;8037;51.666;7.834;2023-10-09T05:26:46;6.80;;;3.60;;
15876;SDS011;8037;51.666;7.834;2023-10-09T05:29:20;12.73;;;5.27;;
15876;SDS011;8037;51.666;7.834;2023-10-09T05:31:58;5.17;;;3.93;;
15876;SDS011;8037;51.666;7.834;2023-10-09T05:34:50;6.17;;;4.80;;
15876;SDS011;8037;51.666;7.834;2023-10-09T05:37:29;5.20;;;4.63;;
15876;SDS011;8037;51.666;7.834;2023-10-09T05:40:02;9.60;;;4.50;;
15876;SDS011;8037;51.666;7.834;2023-10-09T05:42:29;11.13;;;4.70;;
15876;SDS011;8037;51.666;7.834;2023-10-09T05:47:47;6.03;;;4.00;;
15876;SDS011;8037;51.666;7.834;2023-10-09T05:50:27;5.47;;;4.10;;
15876;SDS011;8037;51.666;7.834;2023-10-09T05:52:54;8.67;;;4.60;;
15876;SDS011;8037;51.666;7.834;2023-10-09T05:55:21;7.40;;;4.77;;
15876;SDS011;8037;51.666;7.834;2023-10-09T05:58:07;7.73;;;4.50;;
15876;SDS011;8037;51.666;7.834;2023-10-09T06:00:52;11.83;;;4.63;;
15876;SDS011;8037;51.666;7.834;2023-10-09T06:03:51;9.10;;;4.80;;
15876;SDS011;8037;51.666;7.834;2023-10-09T06:06:20;11.40;;;5.33;;
15876;SDS011;8037;51.666;7.834;2023-10-09T06:09:00;7.67;;;5.10;;
15876;SDS011;8037;51.666;7.834;2023-10-09T06:11:37;4.57;;;4.00;;
15876;SDS011;8037;51.666;7.834;2023-10-09T06:14:04;8.13;;;4.80;;
15876;SDS011;8037;51.666;7.834;2023-10-09T06:16:37;8.97;;;4.20;;
15876;SDS011;8037;51.666;7.834;2023-10-09T06:19:21;12.50;;;5.50;;
15876;SDS011;8037;51.666;7.834;2023-10-09T06:21:48;8.13;;;5.03;;
15876;SDS011;8037;51.666;7.834;2023-10-09T06:24:16;9.23;;;4.83;;
15876;SDS011;8037;51.666;7.834;2023-10-09T06:26:43;7.60;;;4.20;;
15876;SDS011;8037;51.666;7.834;2023-10-09T06:29:36;11.97;;;4.57;;
15876;SDS011;8037;51.666;7.834;2023-10-09T06:32:14;15.57;;;5.10;;
15876;SDS011;8037;51.666;7.834;2023-10-09T06:34:50;7.67;;;4.03;;
15876;SDS011;8037;51.666;7.834;2023-10-09T06:37:17;10.90;;;5.17;;
15876;SDS011;8037;51.666;7.834;2023-10-09T06:39:50;8.57;;;4.03;;
15876;SDS011;8037;51.666;7.834;2023-10-09T06:42:36;7.70;;;4.47;;
15876;SDS011;8037;51.666;7.834;2023-10-09T06:45:08;9.93;;;4.80;;
15876;SDS011;8037;51.666;7.834;2023-10-09T06:47:49;10.23;;;4.57;;
15876;SDS011;8037;51.666;7.834;2023-10-09T06:50:24;8.20;;;4.70;;
15876;SDS011;8037;51.666;7.834;2023-10-09T06:52:51;18.97;;;5.37;;
15876;SDS011;8037;51.666;7.834;2023-10-09T06:55:43;9.03;;;5.30;;
15876;SDS011;8037;51.666;7.834;2023-10-09T06:58:26;6.50;;;4.03;;
15876;SDS011;8037;51.666;7.834;2023-10-09T07:00:52;5.47;;;4.60;;
15876;SDS011;8037;51.666;7.834;2023-10-09T07:03:27;8.57;;;4.33;;
15876;SDS011;8037;51.666;7.834;2023-10-09T07:06:06;12.67;;;4.30;;
15876;SDS011;8037;51.666;7.834;2023-10-09T07:08:48;10.10;;;5.27;;
15876;SDS011;8037;51.666;7.834;2023-10-09T07:11:35;8.93;;;4.70;;
15876;SDS011;8037;51.666;7.834;2023-10-09T07:14:11;6.00;;;4.57;;
15876;SDS011;8037;51.666;7.834;2023-10-09T07:16:59;10.53;;;5.03;;
15876;SDS011;8037;51.666;7.834;2023-10-09T07:19:26;6.47;;;3.80;;
15876;SDS011;8037;51.666;7.834;2023-10-09T07:22:10;8.03;;;4.67;;
15876;SDS011;8037;51.666;7.834;2023-10-09T07:24:48;12.13;;;5.10;;
15876;SDS011;8037;51.666;7.834;2023-10-09T07:27:18;7.60;;;4.27;;
15876;SDS011;8037;51.666;7.834;2023-10-09T07:30:05;9.97;;;5.20;;
15876;SDS011;8037;51.666;7.834;2023-10-09T07:32:52;9.70;;;5.57;;
15876;SDS011;8037;51.666;7.834;2023-10-09T07:35:19;12.20;;;5.20;;
15876;SDS011;8037;51.666;7.834;2023-10-09T07:38:05;8.00;;;4.17;;
15876;SDS011;8037;51.666;7.834;2023-10-09T07:40:34;14.30;;;5.03;;
15876;SDS011;8037;51.666;7.834;2023-10-09T07:43:19;6.67;;;4.17;;
15876;SDS011;8037;51.666;7.834;2023-10-09T07:45:51;7.67;;;4.73;;
15876;SDS011;8037;51.666;7.834;2023-10-09T07:48:39;12.70;;;5.07;;
15876;SDS011;8037;51.666;7.834;2023-10-09T07:51:20;11.43;;;5.03;;
15876;SDS011;8037;51.666;7.834;2023-10-09T07:53:56;4.83;;;3.83;;
15876;SDS011;8037;51.666;7.834;2023-10-09T07:56:24;7.83;;;4.97;;
15876;SDS011;8037;51.666;7.834;2023-10-09T07:58:55;9.90;;;5.20;;
15876;SDS011;8037;51.666;7.834;2023-10-09T08:01:25;12.23;;;5.70;;
15876;SDS011;8037;51.666;7.834;2023-10-09T08:04:03;10.90;;;4.70;;
15876;SDS011;8037;51.666;7.834;2023-10-09T08:06:45;9.30;;;4.80;;
15876;SDS011;8037;51.666;7.834;2023-10-09T08:09:12;9.73;;;5.20;;
15876;SDS011;8037;51.666;7.834;2023-10-09T08:11:39;5.87;;;4.13;;
15876;SDS011;8037;51.666;7.834;2023-10-09T08:14:05;11.97;;;4.53;;
15876;SDS011;8037;51.666;7.834;2023-10-09T08:16:50;6.43;;;4.10;;
15876;SDS011;8037;51.666;7.834;2023-10-09T08:19:36;12.17;;;5.80;;
15876;SDS011;8037;51.666;7.834;2023-10-09T08:22:16;12.60;;;4.73;;
15876;SDS011;8037;51.666;7.834;2023-10-09T08:25:02;6.63;;;5.47;;
15876;SDS011;8037;51.666;7.834;2023-10-09T08:27:29;10.57;;;5.17;;
15876;SDS011;8037;51.666;7.834;2023-10-09T08:29:55;16.97;;;5.47;;
15876;SDS011;8037;51.666;7.834;2023-10-09T08:32:40;11.37;;;5.87;;
15876;SDS011;8037;51.666;7.834;2023-10-09T08:35:08;14.97;;;5.20;;
15876;SDS011;8037;51.666;7.834;2023-10-09T08:37:53;9.43;;;4.80;;
15876;SDS011;8037;51.666;7.834;2023-10-09T08:40:28;8.30;;;4.93;;
15876;SDS011;8037;51.666;7.834;2023-10-09T08:42:56;7.60;;;4.10;;
15876;SDS011;8037;51.666;7.834;2023-10-09T08:45:25;11.60;;;6.33;;
15876;SDS011;8037;51.666;7.834;2023-10-09T08:47:55;12.03;;;5.27;;
15876;SDS011;8037;51.666;7.834;2023-10-09T08:50:22;10.53;;;5.47;;
15876;SDS011;8037;51.666;7.834;2023-10-09T08:52:53;5.77;;;4.47;;
15876;SDS011;8037;51.666;7.834;2023-10-09T08:55:20;11.53;;;6.07;;
15876;SDS011;8037;51.666;7.834;2023-10-09T08:57:46;15.60;;;5.73;;
15876;SDS011;8037;51.666;7.834;2023-10-09T09:00:18;7.97;;;5.70;;
15876;SDS011;8037;51.666;7.834;2023-10-09T09:02:58;13.63;;;5.10;;
15876;SDS011;8037;51.666;7.834;2023-10-09T09:05:28;9.60;;;5.77;;
15876;SDS011;8037;51.666;7.834;2023-10-09T09:07:54;8.17;;;5.20;;
15876;SDS011;8037;51.666;7.834;2023-10-09T09:10:27;14.50;;;4.70;;
15876;SDS011;8037;51.666;7.834;2023-10-09T09:13:00;11.13;;;5.20;;
15876;SDS011;8037;51.666;7.834;2023-10-09T09:15:28;6.40;;;5.03;;
15876;SDS011;8037;51.666;7.834;2023-10-09T09:18:03;11.20;;;5.33;;
15876;SDS011;8037;51.666;7.834;2023-10-09T09:20:33;7.87;;;5.70;;
15876;SDS011;8037;51.666;7.834;2023-10-09T09:23:02;12.47;;;5.70;;
15876;SDS011;8037;51.666;7.834;2023-10-09T09:25:44;6.27;;;5.00;;
15876;SDS011;8037;51.666;7.834;2023-10-09T09:28:11;10.37;;;4.90;;
15876;SDS011;8037;51.666;7.834;2023-10-09T09:30:37;6.50;;;4.70;;
15876;SDS011;8037;51.666;7.834;2023-10-09T09:33:24;12.93;;;5.80;;
15876;SDS011;8037;51.666;7.834;2023-10-09T09:36:07;9.70;;;5.90;;
15876;SDS011;8037;51.666;7.834;2023-10-09T09:38:36;13.23;;;5.97;;
15876;SDS011;8037;51.666;7.834;2023-10-09T09:41:15;13.90;;;5.33;;
15876;SDS011;8037;51.666;7.834;2023-10-09T09:43:54;9.03;;;4.90;;
15876;SDS011;8037;51.666;7.834;2023-10-09T09:46:32;8.60;;;5.40;;
15876;SDS011;8037;51.666;7.834;2023-10-09T09:49:00;18.60;;;5.53;;
15876;SDS011;8037;51.666;7.834;2023-10-09T09:51:26;17.40;;;5.60;;
15876;SDS011;8037;51.666;7.834;2023-10-09T09:53:54;10.37;;;6.37;;
15876;SDS011;8037;51.666;7.834;2023-10-09T09:56:20;8.37;;;5.60;;
15876;SDS011;8037;51.666;7.834;2023-10-09T09:58:50;7.43;;;5.00;;
15876;SDS011;8037;51.666;7.834;2023-10-09T10:01:22;10.77;;;6.67;;
15876;SDS011;8037;51.666;7.834;2023-10-09T10:03:59;9.60;;;4.80;;
15876;SDS011;8037;51.666;7.834;2023-10-09T10:06:29;8.67;;;5.60;;
15876;SDS011;8037;51.666;7.834;2023-10-09T10:08:57;17.73;;;5.93;;
15876;SDS011;8037;51.666;7.834;2023-10-09T10:14:09;11.60;;;5.77;;
15876;SDS011;8037;51.666;7.834;2023-10-09T10:22:29;7.10;;;5.40;;
15876;SDS011;8037;51.666;7.834;2023-10-09T10:24:55;7.23;;;5.33;;
15876;SDS011;8037;51.666;7.834;2023-10-09T10:27:34;11.70;;;5.60;;
15876;SDS011;8037;51.666;7.834;2023-10-09T10:32:57;8.47;;;5.97;;
15876;SDS011;8037;51.666;7.834;2023-10-09T10:35:23;6.17;;;4.23;;
15876;SDS011;8037;51.666;7.834;2023-10-09T10:38:30;11.60;;;5.70;;
15876;SDS011;8037;51.666;7.834;2023-10-09T10:41:09;6.90;;;4.70;;
15876;SDS011;8037;51.666;7.834;2023-10-09T10:43:41;13.57;;;7.40;;
15876;SDS011;8037;51.666;7.834;2023-10-09T10:46:20;12.17;;;5.67;;
15876;SDS011;8037;51.666;7.834;2023-10-09T10:49:10;9.50;;;6.17;;
15876;SDS011;8037;51.666;7.834;2023-10-09T10:51:46;10.20;;;5.33;;
15876;SDS011;8037;51.666;7.834;2023-10-09T10:54:26;12.83;;;6.47;;
15876;SDS011;8037;51.666;7.834;2023-10-09T10:56:58;11.30;;;6.07;;
15876;SDS011;8037;51.666;7.834;2023-10-09T10:59:25;8.03;;;6.10;;
15876;SDS011;8037;51.666;7.834;2023-10-09T11:02:01;11.07;;;7.17;;
15876;SDS011;8037;51.666;7.834;2023-10-09T11:04:28;11.90;;;6.60;;
15876;SDS011;8037;51.666;7.834;2023-10-09T11:06:57;9.83;;;6.80;;
15876;SDS011;8037;51.666;7.834;2023-10-09T11:09:44;18.03;;;7.57;;
15876;SDS011;8037;51.666;7.834;2023-10-09T11:12:29;9.53;;;6.90;;
15876;SDS011;8037;51.666;7.834;2023-10-09T11:15:09;15.83;;;6.00;;
15876;SDS011;8037;51.666;7.834;2023-10-09T11:17:59;11.90;;;6.67;;
15876;SDS011;8037;51.666;7.834;2023-10-09T11:20:30;14.73;;;8.00;;
15876;SDS011;8037;51.666;7.834;2023-10-09T11:22:59;9.93;;;6.43;;
15876;SDS011;8037;51.666;7.834;2023-10-09T11:25:38;19.20;;;11.40;;
15876;SDS011;8037;51.666;7.834;2023-10-09T11:28:21;8.70;;;6.37;;
15876;SDS011;8037;51.666;7.834;2023-10-09T11:31:12;11.13;;;6.47;;
15876;SDS011;8037;51.666;7.834;2023-10-09T11:33:50;18.97;;;7.93;;
15876;SDS011;8037;51.666;7.834;2023-10-09T11:36:17;9.23;;;6.40;;
15876;SDS011;8037;51.666;7.834;2023-10-09T11:38:47;16.87;;;7.70;;
15876;SDS011;8037;51.666;7.834;2023-10-09T11:41:17;12.37;;;7.17;;
15876;SDS011;8037;51.666;7.834;2023-10-09T11:43:52;9.00;;;6.23;;
15876;SDS011;8037;51.666;7.834;2023-10-09T11:46:22;8.63;;;6.97;;
15876;SDS011;8037;51.666;7.834;2023-10-09T11:49:13;16.13;;;7.43;;
15876;SDS011;8037;51.666;7.834;2023-10-09T11:52:06;12.97;;;6.90;;
15876;SDS011;8037;51.666;7.834;2023-10-09T11:54:35;10.10;;;6.40;;
15876;SDS011;8037;51.666;7.834;2023-10-09T11:57:02;37.10;;;7.10;;
15876;SDS011;8037;51.666;7.834;2023-10-09T11:59:28;10.70;;;5.93;;
15876;SDS011;8037;51.666;7.834;2023-10-09T12:02:03;10.67;;;5.77;;
15876;SDS011;8037;51.666;7.834;2023-10-09T12:04:29;10.47;;;6.30;;
15876;SDS011;8037;51.666;7.834;2023-10-09T12:06:58;12.63;;;7.67;;
15876;SDS011;8037;51.666;7.834;2023-10-09T12:09:34;16.30;;;5.60;;
15876;SDS011;8037;51.666;7.834;2023-10-09T12:12:04;8.43;;;5.40;;
15876;SDS011;8037;51.666;7.834;2023-10-09T12:14:30;12.13;;;6.70;;
15876;SDS011;8037;51.666;7.834;2023-10-09T12:17:00;10.87;;;6.67;;
15876;SDS011;8037;51.666;7.834;2023-10-09T12:21:59;22.83;;;6.87;;
15876;SDS011;8037;51.666;7.834;2023-10-09T12:24:26;16.27;;;6.17;;
15876;SDS011;8037;51.666;7.834;2023-10-09T12:26:52;10.43;;;6.60;;
15876;SDS011;8037;51.666;7.834;2023-10-09T12:29:18;5.87;;;5.27;;
15876;SDS011;8037;51.666;7.834;2023-10-09T12:31:45;12.73;;;6.20;;
15876;SDS011;8037;51.666;7.834;2023-10-09T12:34:11;16.17;;;5.87;;
15876;SDS011;8037;51.666;7.834;2023-10-09T12:36:45;12.80;;;5.80;;
15876;SDS011;8037;51.666;7.834;2023-10-09T12:39:10;15.43;;;5.27;;
15876;SDS011;8037;51.666;7.834;2023-10-09T12:41:43;13.40;;;6.97;;
15876;SDS011;8037;51.666;7.834;2023-10-09T12:44:09;11.97;;;6.33;;
15876;SDS011;8037;51.666;7.834;2023-10-09T12:46:45;5.83;;;5.27;;
15876;SDS011;8037;51.666;7.834;2023-10-09T12:49:22;14.80;;;5.03;;
15876;SDS011;8037;51.666;7.834;2023-10-09T12:51:52;9.50;;;5.87;;
15876;SDS011;8037;51.666;7.834;2023-10-09T12:54:18;13.33;;;6.00;;
15876;SDS011;8037;51.666;7.834;2023-10-09T12:56:54;17.20;;;7.40;;
15876;SDS011;8037;51.666;7.834;2023-10-09T12:59:20;7.60;;;5.83;;
15876;SDS011;8037;51.666;7.834;2023-10-09T13:01:48;7.97;;;5.77;;
15876;SDS011;8037;51.666;7.834;2023-10-09T13:04:18;9.27;;;5.00;;
15876;SDS011;8037;51.666;7.834;2023-10-09T13:06:47;6.83;;;4.83;;
15876;SDS011;8037;51.666;7.834;2023-10-09T13:09:16;12.53;;;6.37;;
15876;SDS011;8037;51.666;7.834;2023-10-09T13:12:12;9.63;;;4.93;;
15876;SDS011;8037;51.666;7.834;2023-10-09T13:14:43;7.90;;;5.57;;
15876;SDS011;8037;51.666;7.834;2023-10-09T13:17:10;9.37;;;6.17;;
15876;SDS011;8037;51.666;7.834;2023-10-09T13:19:36;13.63;;;6.30;;
15876;SDS011;8037;51.666;7.834;2023-10-09T13:22:02;10.47;;;6.53;;
15876;SDS011;8037;51.666;7.834;2023-10-09T13:24:29;10.10;;;5.30;;
15876;SDS011;8037;51.666;7.834;2023-10-09T13:26:56;13.77;;;6.70;;
15876;SDS011;8037;51.666;7.834;2023-10-09T13:29:23;6.77;;;4.73;;
15876;SDS011;8037;51.666;7.834;2023-10-09T13:31:49;14.63;;;5.00;;
15876;SDS011;8037;51.666;7.834;2023-10-09T13:34:22;14.87;;;7.03;;
15876;SDS011;8037;51.666;7.834;2023-10-09T13:36:52;14.17;;;5.10;;
15876;SDS011;8037;51.666;7.834;2023-10-09T13:39:20;6.07;;;4.60;;
15876;SDS011;8037;51.666;7.834;2023-10-09T13:41:53;18.63;;;6.70;;
15876;SDS011;8037;51.666;7.834;2023-10-09T13:44:23;8.30;;;5.43;;
15876;SDS011;8037;51.666;7.834;2023-10-09T13:46:51;10.97;;;8.20;;
15876;SDS011;8037;51.666;7.834;2023-10-09T13:49:18;13.53;;;6.93;;
15876;SDS011;8037;51.666;7.834;2023-10-09T13:51:47;12.93;;;6.23;;
15876;SDS011;8037;51.666;7.834;2023-10-09T13:54:15;11.23;;;7.33;;
15876;SDS011;8037;51.666;7.834;2023-10-09T13:56:56;12.57;;;8.00;;
15876;SDS011;8037;51.666;7.834;2023-10-09T13:59:22;17.30;;;7.20;;
15876;SDS011;8037;51.666;7.834;2023-10-09T14:01:53;12.90;;;7.80;;
15876;SDS011;8037;51.666;7.834;2023-10-09T14:04:20;11.67;;;7.43;;
15876;SDS011;8037;51.666;7.834;2023-10-09T14:06:48;8.67;;;6.90;;
15876;SDS011;8037;51.666;7.834;2023-10-09T14:09:14;10.73;;;6.80;;
15876;SDS011;8037;51.666;7.834;2023-10-09T14:11:56;12.23;;;7.37;;
15876;SDS011;8037;51.666;7.834;2023-10-09T14:14:35;15.37;;;7.80;;
15876;SDS011;8037;51.666;7.834;2023-10-09T14:17:06;12.30;;;7.40;;
15876;SDS011;8037;51.666;7.834;2023-10-09T14:19:46;9.63;;;6.87;;
15876;SDS011;8037;51.666;7.834;2023-10-09T14:22:16;15.20;;;9.07;;
15876;SDS011;8037;51.666;7.834;2023-10-09T14:24:42;14.63;;;11.40;;
15876;SDS011;8037;51.666;7.834;2023-10-09T14:27:14;16.40;;;9.53;;
15876;SDS011;8037;51.666;7.834;2023-10-09T14:29:48;22.27;;;9.37;;
15876;SDS011;8037;51.666;7.834;2023-10-09T14:32:14;12.10;;;7.10;;
15876;SDS011;8037;51.666;7.834;2023-10-09T14:34:41;14.20;;;7.47;;
15876;SDS011;8037;51.666;7.834;2023-10-09T14:37:11;7.83;;;5.90;;
15876;SDS011;8037;51.666;7.834;2023-10-09T14:39:40;11.23;;;7.00;;
15876;SDS011;8037;51.666;7.834;2023-10-09T14:42:06;11.40;;;6.20;;
15876;SDS011;8037;51.666;7.834;2023-10-09T14:44:35;12.50;;;6.17;;
15876;SDS011;8037;51.666;7.834;2023-10-09T14:47:05;11.70;;;6.73;;
15876;SDS011;8037;51.666;7.834;2023-10-09T14:49:32;7.73;;;5.37;;
15876;SDS011;8037;51.666;7.834;2023-10-09T14:52:02;11.60;;;7.17;;
15876;SDS011;8037;51.666;7.834;2023-10-09T14:54:28;11.63;;;5.73;;
15876;SDS011;8037;51.666;7.834;2023-10-09T14:56:54;7.90;;;6.00;;
15876;SDS011;8037;51.666;7.834;2023-10-09T14:59:20;9.83;;;5.23;;
15876;SDS011;8037;51.666;7.834;2023-10-09T15:01:47;9.50;;;5.87;;
15876;SDS011;8037;51.666;7.834;2023-10-09T15:04:18;10.03;;;5.37;;
15876;SDS011;8037;51.666;7.834;2023-10-09T15:06:45;9.47;;;6.40;;
15876;SDS011;8037;51.666;7.834;2023-10-09T15:09:14;16.53;;;7.10;;
15876;SDS011;8037;51.666;7.834;2023-10-09T15:11:47;13.00;;;6.53;;
15876;SDS011;8037;51.666;7.834;2023-10-09T15:14:13;19.33;;;12.77;;
15876;SDS011;8037;51.666;7.834;2023-10-09T15:16:39;14.10;;;9.70;;
15876;SDS011;8037;51.666;7.834;2023-10-09T15:19:08;13.10;;;7.50;;
15876;SDS011;8037;51.666;7.834;2023-10-09T15:21:35;11.57;;;7.20;;
15876;SDS011;8037;51.666;7.834;2023-10-09T15:24:07;13.03;;;6.13;;
15876;SDS011;8037;51.666;7.834;2023-10-09T15:26:34;16.77;;;7.07;;
15876;SDS011;8037;51.666;7.834;2023-10-09T15:29:00;14.57;;;7.93;;
15876;SDS011;8037;51.666;7.834;2023-10-09T15:31:28;8.83;;;6.30;;
15876;SDS011;8037;51.666;7.834;2023-10-09T15:33:56;15.20;;;8.03;;
15876;SDS011;8037;51.666;7.834;2023-10-09T15:36:22;16.60;;;7.53;;
15876;SDS011;8037;51.666;7.834;2023-10-09T15:38:53;8.27;;;6.20;;
15876;SDS011;8037;51.666;7.834;2023-10-09T15:41:21;14.37;;;6.77;;
15876;SDS011;8037;51.666;7.834;2023-10-09T15:43:47;30.90;;;6.90;;
15876;SDS011;8037;51.666;7.834;2023-10-09T15:46:14;14.60;;;9.07;;
15876;SDS011;8037;51.666;7.834;2023-10-09T15:48:40;17.97;;;9.10;;